Bordelonville, Louisiana
Current Conditions -  °F | °C
As of 3:53 PM on Friday 19 Dec 2014 (Local Time) from KESF Reporting Station
Light Rain Light Rain  
Wind Chill: 46°   Ceiling: 600
Heat Index: 49°   Visibility: 10mi
Dew Point: 47°   Wind: 7mph
Humidity: 93%   Direction: 50°NE
Pressure: 30.09"   Gusts: NA
Location:  31.11°N, 91.91°W
Report Text: KESF 192153Z AUTO 05006KT 10SM -RA OVC006 09/08 A3009 RMK AO2 SLP191 P0003 T00940083
Loading
Personal Weather Stations






























Interactive Weather Map New forecast layout! Learn more

10-Day Weather Forecast

Advertisements
Track Severe Weather on mobile